sensor_id;sensor_type;location;lat;lon;timestamp;temperature;humidity
15328;DHT22;7764;51.430;6.840;2022-12-07T00:00:13;6.10;99.90
15328;DHT22;7764;51.430;6.840;2022-12-07T00:02:40;6.10;99.90
15328;DHT22;7764;51.430;6.840;2022-12-07T00:05:07;6.10;99.90
15328;DHT22;7764;51.430;6.840;2022-12-07T00:07:36;6.10;99.90
15328;DHT22;7764;51.430;6.840;2022-12-07T00:10:03;6.20;99.90
15328;DHT22;7764;51.430;6.840;2022-12-07T00:12:30;6.20;99.90
15328;DHT22;7764;51.430;6.840;2022-12-07T00:14:57;6.10;99.90
15328;DHT22;7764;51.430;6.840;2022-12-07T00:17:23;6.10;99.90
15328;DHT22;7764;51.430;6.840;2022-12-07T00:19:50;6.10;99.90
15328;DHT22;7764;51.430;6.840;2022-12-07T00:22:17;6.10;99.90
15328;DHT22;7764;51.430;6.840;2022-12-07T00:24:45;6.10;99.90
15328;DHT22;7764;51.430;6.840;2022-12-07T00:27:12;6.10;99.90
15328;DHT22;7764;51.430;6.840;2022-12-07T00:29:39;6.10;99.90
15328;DHT22;7764;51.430;6.840;2022-12-07T00:32:05;6.10;99.90
15328;DHT22;7764;51.430;6.840;2022-12-07T00:34:32;6.10;99.90
15328;DHT22;7764;51.430;6.840;2022-12-07T00:36:59;6.10;99.90
15328;DHT22;7764;51.430;6.840;2022-12-07T00:39:26;6.10;99.90
15328;DHT22;7764;51.430;6.840;2022-12-07T00:41:54;6.00;99.90
15328;DHT22;7764;51.430;6.840;2022-12-07T00:44:21;6.10;99.90
15328;DHT22;7764;51.430;6.840;2022-12-07T00:46:48;6.10;99.90
15328;DHT22;7764;51.430;6.840;2022-12-07T00:49:15;6.10;99.90
15328;DHT22;7764;51.430;6.840;2022-12-07T00:51:41;6.00;99.90
15328;DHT22;7764;51.430;6.840;2022-12-07T00:54:08;6.10;99.90
15328;DHT22;7764;51.430;6.840;2022-12-07T00:56:35;6.10;99.90
15328;DHT22;7764;51.430;6.840;2022-12-07T00:59:03;6.10;99.90
15328;DHT22;7764;51.430;6.840;2022-12-07T01:01:32;6.00;99.90
15328;DHT22;7764;51.430;6.840;2022-12-07T01:03:59;6.00;99.90
15328;DHT22;7764;51.430;6.840;2022-12-07T01:06:27;6.10;99.90
15328;DHT22;7764;51.430;6.840;2022-12-07T01:08:54;6.10;99.90
15328;DHT22;7764;51.430;6.840;2022-12-07T01:11:23;6.10;99.90
15328;DHT22;7764;51.430;6.840;2022-12-07T01:13:50;6.10;99.90
15328;DHT22;7764;51.430;6.840;2022-12-07T01:16:20;6.10;99.90
15328;DHT22;7764;51.430;6.840;2022-12-07T01:18:48;6.10;99.90
15328;DHT22;7764;51.430;6.840;2022-12-07T01:21:18;6.10;99.90
15328;DHT22;7764;51.430;6.840;2022-12-07T01:23:46;6.10;99.90
15328;DHT22;7764;51.430;6.840;2022-12-07T01:26:16;6.00;99.90
15328;DHT22;7764;51.430;6.840;2022-12-07T01:28:44;6.10;99.90
15328;DHT22;7764;51.430;6.840;2022-12-07T01:31:12;6.10;99.90
15328;DHT22;7764;51.430;6.840;2022-12-07T01:33:43;6.00;99.90
15328;DHT22;7764;51.430;6.840;2022-12-07T01:36:14;6.00;99.90
15328;DHT22;7764;51.430;6.840;2022-12-07T01:38:41;6.00;99.90
15328;DHT22;7764;51.430;6.840;2022-12-07T01:41:08;6.00;99.90
15328;DHT22;7764;51.430;6.840;2022-12-07T01:43:35;6.00;99.90
15328;DHT22;7764;51.430;6.840;2022-12-07T01:46:03;6.00;99.90
15328;DHT22;7764;51.430;6.840;2022-12-07T01:48:33;6.00;99.90
15328;DHT22;7764;51.430;6.840;2022-12-07T01:51:05;6.00;99.90
15328;DHT22;7764;51.430;6.840;2022-12-07T01:53:36;6.00;99.90
15328;DHT22;7764;51.430;6.840;2022-12-07T01:56:06;5.90;99.90
15328;DHT22;7764;51.430;6.840;2022-12-07T01:58:34;6.00;99.90
15328;DHT22;7764;51.430;6.840;2022-12-07T02:01:01;5.90;99.90
15328;DHT22;7764;51.430;6.840;2022-12-07T02:03:31;5.90;99.90
15328;DHT22;7764;51.430;6.840;2022-12-07T02:06:00;5.90;99.90
15328;DHT22;7764;51.430;6.840;2022-12-07T02:08:28;5.90;99.90
15328;DHT22;7764;51.430;6.840;2022-12-07T02:10:55;5.90;99.90
15328;DHT22;7764;51.430;6.840;2022-12-07T02:13:23;5.90;99.90
15328;DHT22;7764;51.430;6.840;2022-12-07T02:16:05;5.90;99.90
15328;DHT22;7764;51.430;6.840;2022-12-07T02:18:45;5.80;99.90
15328;DHT22;7764;51.430;6.840;2022-12-07T02:21:22;5.80;99.90
15328;DHT22;7764;51.430;6.840;2022-12-07T02:24:18;5.80;99.90
15328;DHT22;7764;51.430;6.840;2022-12-07T02:27:14;5.80;99.90
15328;DHT22;7764;51.430;6.840;2022-12-07T02:29:50;5.80;99.90
15328;DHT22;7764;51.430;6.840;2022-12-07T02:32:26;5.80;99.90
15328;DHT22;7764;51.430;6.840;2022-12-07T02:34:58;5.70;99.90
15328;DHT22;7764;51.430;6.840;2022-12-07T02:37:35;5.70;99.90
15328;DHT22;7764;51.430;6.840;2022-12-07T02:40:08;5.70;99.90
15328;DHT22;7764;51.430;6.840;2022-12-07T02:42:39;5.70;99.90
15328;DHT22;7764;51.430;6.840;2022-12-07T02:45:10;5.70;99.90
15328;DHT22;7764;51.430;6.840;2022-12-07T02:47:39;5.70;99.90
15328;DHT22;7764;51.430;6.840;2022-12-07T02:50:08;5.70;99.90
15328;DHT22;7764;51.430;6.840;2022-12-07T02:52:35;5.70;99.90
15328;DHT22;7764;51.430;6.840;2022-12-07T02:55:03;5.60;99.90
15328;DHT22;7764;51.430;6.840;2022-12-07T02:57:41;5.70;99.90
15328;DHT22;7764;51.430;6.840;2022-12-07T03:00:16;5.60;99.90
15328;DHT22;7764;51.430;6.840;2022-12-07T03:02:51;5.50;99.90
15328;DHT22;7764;51.430;6.840;2022-12-07T03:05:30;5.50;99.90
15328;DHT22;7764;51.430;6.840;2022-12-07T03:08:02;5.50;99.90
15328;DHT22;7764;51.430;6.840;2022-12-07T03:10:38;5.40;99.90
15328;DHT22;7764;51.430;6.840;2022-12-07T03:13:11;5.40;99.90
15328;DHT22;7764;51.430;6.840;2022-12-07T03:15:46;5.40;99.90
15328;DHT22;7764;51.430;6.840;2022-12-07T03:18:16;5.40;99.90
15328;DHT22;7764;51.430;6.840;2022-12-07T03:20:46;5.30;99.90
15328;DHT22;7764;51.430;6.840;2022-12-07T03:23:16;5.30;99.90
15328;DHT22;7764;51.430;6.840;2022-12-07T03:25:47;5.20;99.90
15328;DHT22;7764;51.430;6.840;2022-12-07T03:28:18;5.20;99.90
15328;DHT22;7764;51.430;6.840;2022-12-07T03:30:52;5.20;99.90
15328;DHT22;7764;51.430;6.840;2022-12-07T03:33:23;5.20;99.90
15328;DHT22;7764;51.430;6.840;2022-12-07T03:35:58;5.20;99.90
15328;DHT22;7764;51.430;6.840;2022-12-07T03:38:31;5.20;99.90
15328;DHT22;7764;51.430;6.840;2022-12-07T03:41:02;5.20;99.90
15328;DHT22;7764;51.430;6.840;2022-12-07T03:43:32;5.10;99.90
15328;DHT22;7764;51.430;6.840;2022-12-07T03:46:05;5.10;99.90
15328;DHT22;7764;51.430;6.840;2022-12-07T03:48:36;5.10;99.90
15328;DHT22;7764;51.430;6.840;2022-12-07T03:51:13;5.10;99.90
15328;DHT22;7764;51.430;6.840;2022-12-07T03:53:45;5.10;99.90
15328;DHT22;7764;51.430;6.840;2022-12-07T03:56:13;5.10;99.90
15328;DHT22;7764;51.430;6.840;2022-12-07T03:58:41;5.10;99.90
15328;DHT22;7764;51.430;6.840;2022-12-07T04:01:10;5.10;99.90
15328;DHT22;7764;51.430;6.840;2022-12-07T04:03:37;5.10;99.90
15328;DHT22;7764;51.430;6.840;2022-12-07T04:06:05;5.10;99.90
15328;DHT22;7764;51.430;6.840;2022-12-07T04:08:32;5.20;99.90
15328;DHT22;7764;51.430;6.840;2022-12-07T04:10:58;5.20;99.90
15328;DHT22;7764;51.430;6.840;2022-12-07T04:13:25;5.20;99.90
15328;DHT22;7764;51.430;6.840;2022-12-07T04:15:52;5.20;99.90
15328;DHT22;7764;51.430;6.840;2022-12-07T04:18:20;5.20;99.90
15328;DHT22;7764;51.430;6.840;2022-12-07T04:20:47;5.20;99.90
15328;DHT22;7764;51.430;6.840;2022-12-07T04:23:14;5.20;99.90
15328;DHT22;7764;51.430;6.840;2022-12-07T04:25:41;5.30;99.90
15328;DHT22;7764;51.430;6.840;2022-12-07T04:28:08;5.20;99.90
15328;DHT22;7764;51.430;6.840;2022-12-07T04:30:34;5.20;99.90
15328;DHT22;7764;51.430;6.840;2022-12-07T04:33:01;5.10;99.90
15328;DHT22;7764;51.430;6.840;2022-12-07T04:35:29;5.10;99.90
15328;DHT22;7764;51.430;6.840;2022-12-07T04:37:56;5.00;99.90
15328;DHT22;7764;51.430;6.840;2022-12-07T04:40:23;5.00;99.90
15328;DHT22;7764;51.430;6.840;2022-12-07T04:42:50;5.00;99.90
15328;DHT22;7764;51.430;6.840;2022-12-07T04:45:16;5.00;99.90
15328;DHT22;7764;51.430;6.840;2022-12-07T04:47:43;5.00;99.90
15328;DHT22;7764;51.430;6.840;2022-12-07T04:50:10;4.90;99.90
15328;DHT22;7764;51.430;6.840;2022-12-07T04:52:39;4.90;99.90
15328;DHT22;7764;51.430;6.840;2022-12-07T04:55:06;4.90;99.90
15328;DHT22;7764;51.430;6.840;2022-12-07T04:57:33;4.90;99.90
15328;DHT22;7764;51.430;6.840;2022-12-07T05:00:00;4.90;99.90
15328;DHT22;7764;51.430;6.840;2022-12-07T05:02:26;4.80;99.90
15328;DHT22;7764;51.430;6.840;2022-12-07T05:04:53;4.80;99.90
15328;DHT22;7764;51.430;6.840;2022-12-07T05:07:20;4.90;99.90
15328;DHT22;7764;51.430;6.840;2022-12-07T05:09:48;4.90;99.90
15328;DHT22;7764;51.430;6.840;2022-12-07T05:12:15;4.90;99.90
15328;DHT22;7764;51.430;6.840;2022-12-07T05:14:42;5.00;99.90
15328;DHT22;7764;51.430;6.840;2022-12-07T05:17:09;5.00;99.90
15328;DHT22;7764;51.430;6.840;2022-12-07T05:19:37;4.90;99.90
15328;DHT22;7764;51.430;6.840;2022-12-07T05:22:03;5.00;99.90
15328;DHT22;7764;51.430;6.840;2022-12-07T05:24:30;5.00;99.90
15328;DHT22;7764;51.430;6.840;2022-12-07T05:26:59;5.00;99.90
15328;DHT22;7764;51.430;6.840;2022-12-07T05:29:25;5.10;99.90
15328;DHT22;7764;51.430;6.840;2022-12-07T05:31:52;5.00;99.90
15328;DHT22;7764;51.430;6.840;2022-12-07T05:34:19;5.00;99.90
15328;DHT22;7764;51.430;6.840;2022-12-07T05:36:46;5.00;99.90
15328;DHT22;7764;51.430;6.840;2022-12-07T05:39:13;5.10;99.90
15328;DHT22;7764;51.430;6.840;2022-12-07T05:41:41;5.10;99.90
15328;DHT22;7764;51.430;6.840;2022-12-07T05:44:26;5.10;99.90
15328;DHT22;7764;51.430;6.840;2022-12-07T05:46:53;5.10;99.90
15328;DHT22;7764;51.430;6.840;2022-12-07T05:49:20;5.10;99.90
15328;DHT22;7764;51.430;6.840;2022-12-07T05:51:47;5.10;99.90
15328;DHT22;7764;51.430;6.840;2022-12-07T05:54:14;5.20;99.90
15328;DHT22;7764;51.430;6.840;2022-12-07T05:56:41;5.20;99.90
15328;DHT22;7764;51.430;6.840;2022-12-07T05:59:09;5.20;99.90
15328;DHT22;7764;51.430;6.840;2022-12-07T06:01:55;5.20;99.90
15328;DHT22;7764;51.430;6.840;2022-12-07T06:04:23;5.20;99.90
15328;DHT22;7764;51.430;6.840;2022-12-07T06:06:51;5.20;99.90
15328;DHT22;7764;51.430;6.840;2022-12-07T06:09:19;5.20;99.90
15328;DHT22;7764;51.430;6.840;2022-12-07T06:11:47;5.30;99.90
15328;DHT22;7764;51.430;6.840;2022-12-07T06:14:31;5.30;99.90
15328;DHT22;7764;51.430;6.840;2022-12-07T06:16:59;5.30;99.90
15328;DHT22;7764;51.430;6.840;2022-12-07T06:19:26;5.20;99.90
15328;DHT22;7764;51.430;6.840;2022-12-07T06:21:53;5.20;99.90
15328;DHT22;7764;51.430;6.840;2022-12-07T06:24:21;5.20;99.90
15328;DHT22;7764;51.430;6.840;2022-12-07T06:26:48;5.20;99.90
15328;DHT22;7764;51.430;6.840;2022-12-07T06:29:15;5.20;99.90
15328;DHT22;7764;51.430;6.840;2022-12-07T06:31:42;5.20;99.90
15328;DHT22;7764;51.430;6.840;2022-12-07T06:34:13;5.20;99.90
15328;DHT22;7764;51.430;6.840;2022-12-07T06:36:40;5.20;99.90
15328;DHT22;7764;51.430;6.840;2022-12-07T06:39:07;5.20;99.90
15328;DHT22;7764;51.430;6.840;2022-12-07T06:41:35;5.20;99.90
15328;DHT22;7764;51.430;6.840;2022-12-07T06:44:02;5.20;99.90
15328;DHT22;7764;51.430;6.840;2022-12-07T06:46:29;5.20;99.90
15328;DHT22;7764;51.430;6.840;2022-12-07T06:48:56;5.30;99.90
15328;DHT22;7764;51.430;6.840;2022-12-07T06:51:24;5.30;99.90
15328;DHT22;7764;51.430;6.840;2022-12-07T06:53:51;5.30;99.90
15328;DHT22;7764;51.430;6.840;2022-12-07T06:56:19;5.30;99.90
15328;DHT22;7764;51.430;6.840;2022-12-07T06:58:45;5.40;99.90
15328;DHT22;7764;51.430;6.840;2022-12-07T07:01:14;5.40;99.90
15328;DHT22;7764;51.430;6.840;2022-12-07T07:03:41;5.50;99.90
15328;DHT22;7764;51.430;6.840;2022-12-07T07:06:08;5.50;99.90
15328;DHT22;7764;51.430;6.840;2022-12-07T07:08:37;5.40;99.90
15328;DHT22;7764;51.430;6.840;2022-12-07T07:11:05;5.50;99.90
15328;DHT22;7764;51.430;6.840;2022-12-07T07:13:32;5.40;99.90
15328;DHT22;7764;51.430;6.840;2022-12-07T07:15:59;5.40;99.90
15328;DHT22;7764;51.430;6.840;2022-12-07T07:18:27;5.40;99.90
15328;DHT22;7764;51.430;6.840;2022-12-07T07:20:54;5.40;99.90
15328;DHT22;7764;51.430;6.840;2022-12-07T07:23:21;5.30;99.90
15328;DHT22;7764;51.430;6.840;2022-12-07T07:25:49;5.30;99.90
15328;DHT22;7764;51.430;6.840;2022-12-07T07:28:16;5.30;99.90
15328;DHT22;7764;51.430;6.840;2022-12-07T07:30:43;5.30;99.90
15328;DHT22;7764;51.430;6.840;2022-12-07T07:33:11;5.30;99.90
15328;DHT22;7764;51.430;6.840;2022-12-07T07:35:38;5.30;99.90
15328;DHT22;7764;51.430;6.840;2022-12-07T07:38:05;5.30;99.90
15328;DHT22;7764;51.430;6.840;2022-12-07T07:40:33;5.30;99.90
15328;DHT22;7764;51.430;6.840;2022-12-07T07:43:01;5.30;99.90
15328;DHT22;7764;51.430;6.840;2022-12-07T07:45:28;5.30;99.90
15328;DHT22;7764;51.430;6.840;2022-12-07T07:47:55;5.30;99.90
15328;DHT22;7764;51.430;6.840;2022-12-07T07:50:22;5.30;99.90
15328;DHT22;7764;51.430;6.840;2022-12-07T07:52:49;5.30;99.90
15328;DHT22;7764;51.430;6.840;2022-12-07T07:55:16;5.30;99.90
15328;DHT22;7764;51.430;6.840;2022-12-07T07:57:43;5.40;99.90
15328;DHT22;7764;51.430;6.840;2022-12-07T08:00:13;5.40;99.90
15328;DHT22;7764;51.430;6.840;2022-12-07T08:02:40;5.40;99.90
15328;DHT22;7764;51.430;6.840;2022-12-07T08:05:08;5.40;99.90
15328;DHT22;7764;51.430;6.840;2022-12-07T08:07:35;5.40;99.90
15328;DHT22;7764;51.430;6.840;2022-12-07T08:10:03;5.50;99.90
15328;DHT22;7764;51.430;6.840;2022-12-07T08:12:30;5.40;99.90
15328;DHT22;7764;51.430;6.840;2022-12-07T08:14:57;5.50;99.90
15328;DHT22;7764;51.430;6.840;2022-12-07T08:17:25;5.40;99.90
15328;DHT22;7764;51.430;6.840;2022-12-07T08:19:52;5.30;99.90
15328;DHT22;7764;51.430;6.840;2022-12-07T08:22:19;5.40;99.90
15328;DHT22;7764;51.430;6.840;2022-12-07T08:24:46;5.30;99.90
15328;DHT22;7764;51.430;6.840;2022-12-07T08:27:12;5.40;99.90
15328;DHT22;7764;51.430;6.840;2022-12-07T08:29:39;5.40;99.90
15328;DHT22;7764;51.430;6.840;2022-12-07T08:32:06;5.30;99.90
15328;DHT22;7764;51.430;6.840;2022-12-07T08:34:34;5.30;99.90
15328;DHT22;7764;51.430;6.840;2022-12-07T08:37:02;5.20;99.90
15328;DHT22;7764;51.430;6.840;2022-12-07T08:39:29;5.20;99.90
15328;DHT22;7764;51.430;6.840;2022-12-07T08:41:56;5.20;99.90
15328;DHT22;7764;51.430;6.840;2022-12-07T08:44:23;5.10;99.90
15328;DHT22;7764;51.430;6.840;2022-12-07T08:46:51;5.20;99.90
15328;DHT22;7764;51.430;6.840;2022-12-07T08:49:23;5.10;99.90
15328;DHT22;7764;51.430;6.840;2022-12-07T08:51:52;5.20;99.90
15328;DHT22;7764;51.430;6.840;2022-12-07T08:54:21;5.30;99.90
15328;DHT22;7764;51.430;6.840;2022-12-07T08:56:49;5.30;99.90
15328;DHT22;7764;51.430;6.840;2022-12-07T08:59:17;5.40;99.90
15328;DHT22;7764;51.430;6.840;2022-12-07T09:01:46;5.40;99.90
15328;DHT22;7764;51.430;6.840;2022-12-07T09:04:12;5.50;99.90
15328;DHT22;7764;51.430;6.840;2022-12-07T09:06:41;5.50;99.90
15328;DHT22;7764;51.430;6.840;2022-12-07T09:09:10;5.40;99.90
15328;DHT22;7764;51.430;6.840;2022-12-07T09:11:38;5.40;99.90
15328;DHT22;7764;51.430;6.840;2022-12-07T09:14:05;5.40;99.90
15328;DHT22;7764;51.430;6.840;2022-12-07T09:16:32;5.30;99.90
15328;DHT22;7764;51.430;6.840;2022-12-07T09:18:58;5.40;99.90
15328;DHT22;7764;51.430;6.840;2022-12-07T09:21:25;5.60;99.90
15328;DHT22;7764;51.430;6.840;2022-12-07T09:23:52;5.60;99.90
15328;DHT22;7764;51.430;6.840;2022-12-07T09:26:20;5.70;99.90
15328;DHT22;7764;51.430;6.840;2022-12-07T09:28:47;5.70;99.90
15328;DHT22;7764;51.430;6.840;2022-12-07T09:31:14;5.80;99.90
15328;DHT22;7764;51.430;6.840;2022-12-07T09:33:40;5.90;99.90
15328;DHT22;7764;51.430;6.840;2022-12-07T09:36:08;5.90;99.90
15328;DHT22;7764;51.430;6.840;2022-12-07T09:38:35;6.00;99.90
15328;DHT22;7764;51.430;6.840;2022-12-07T09:41:05;6.00;99.90
15328;DHT22;7764;51.430;6.840;2022-12-07T09:43:35;6.00;99.90
15328;DHT22;7764;51.430;6.840;2022-12-07T09:46:03;6.00;99.90
15328;DHT22;7764;51.430;6.840;2022-12-07T09:48:33;6.10;99.90
15328;DHT22;7764;51.430;6.840;2022-12-07T09:51:03;6.10;99.90
15328;DHT22;7764;51.430;6.840;2022-12-07T09:53:38;6.30;99.90
15328;DHT22;7764;51.430;6.840;2022-12-07T09:56:06;6.30;99.90
15328;DHT22;7764;51.430;6.840;2022-12-07T09:58:34;6.30;99.90
15328;DHT22;7764;51.430;6.840;2022-12-07T10:01:08;6.40;99.90
15328;DHT22;7764;51.430;6.840;2022-12-07T10:03:39;6.40;99.90
15328;DHT22;7764;51.430;6.840;2022-12-07T10:06:06;6.50;99.90
15328;DHT22;7764;51.430;6.840;2022-12-07T10:08:33;6.60;99.90
15328;DHT22;7764;51.430;6.840;2022-12-07T10:11:01;6.60;99.90
15328;DHT22;7764;51.430;6.840;2022-12-07T10:13:36;6.70;99.90
15328;DHT22;7764;51.430;6.840;2022-12-07T10:16:04;6.90;99.90
15328;DHT22;7764;51.430;6.840;2022-12-07T10:18:33;6.90;99.90
15328;DHT22;7764;51.430;6.840;2022-12-07T10:21:09;7.00;99.90
15328;DHT22;7764;51.430;6.840;2022-12-07T10:23:38;7.10;99.90
15328;DHT22;7764;51.430;6.840;2022-12-07T10:26:27;7.10;99.90
15328;DHT22;7764;51.430;6.840;2022-12-07T10:28:59;7.20;99.90
15328;DHT22;7764;51.430;6.840;2022-12-07T10:31:26;7.20;99.90
15328;DHT22;7764;51.430;6.840;2022-12-07T10:33:55;7.30;99.90
15328;DHT22;7764;51.430;6.840;2022-12-07T10:36:25;7.30;99.90
15328;DHT22;7764;51.430;6.840;2022-12-07T10:38:58;7.30;99.90
15328;DHT22;7764;51.430;6.840;2022-12-07T10:41:26;7.30;99.90
15328;DHT22;7764;51.430;6.840;2022-12-07T10:43:54;7.30;99.90
15328;DHT22;7764;51.430;6.840;2022-12-07T10:46:45;7.40;99.90
15328;DHT22;7764;51.430;6.840;2022-12-07T10:49:33;7.30;99.90
15328;DHT22;7764;51.430;6.840;2022-12-07T10:52:08;7.20;99.90
15328;DHT22;7764;51.430;6.840;2022-12-07T10:54:43;7.10;99.90
15328;DHT22;7764;51.430;6.840;2022-12-07T10:57:22;7.20;99.90
15328;DHT22;7764;51.430;6.840;2022-12-07T11:00:00;7.20;99.90
15328;DHT22;7764;51.430;6.840;2022-12-07T11:05:38;7.30;99.90
15328;DHT22;7764;51.430;6.840;2022-12-07T11:08:17;7.40;99.90
15328;DHT22;7764;51.430;6.840;2022-12-07T11:10:50;7.40;99.90
15328;DHT22;7764;51.430;6.840;2022-12-07T11:13:27;7.40;99.90
15328;DHT22;7764;51.430;6.840;2022-12-07T11:16:11;7.40;99.90
15328;DHT22;7764;51.430;6.840;2022-12-07T11:18:48;7.40;99.90
15328;DHT22;7764;51.430;6.840;2022-12-07T11:21:23;7.50;99.90
15328;DHT22;7764;51.430;6.840;2022-12-07T11:23:56;7.50;99.90
15328;DHT22;7764;51.430;6.840;2022-12-07T11:26:41;7.50;99.90
15328;DHT22;7764;51.430;6.840;2022-12-07T11:29:19;7.60;99.90
15328;DHT22;7764;51.430;6.840;2022-12-07T11:31:56;7.60;99.90
15328;DHT22;7764;51.430;6.840;2022-12-07T11:34:30;7.70;99.90
15328;DHT22;7764;51.430;6.840;2022-12-07T11:37:08;7.50;99.90
15328;DHT22;7764;51.430;6.840;2022-12-07T11:39:44;7.50;99.90
15328;DHT22;7764;51.430;6.840;2022-12-07T11:42:15;7.50;99.90
15328;DHT22;7764;51.430;6.840;2022-12-07T11:44:49;7.50;99.90
15328;DHT22;7764;51.430;6.840;2022-12-07T11:47:25;7.60;99.90
15328;DHT22;7764;51.430;6.840;2022-12-07T11:49:55;7.70;99.90
15328;DHT22;7764;51.430;6.840;2022-12-07T11:52:30;7.80;99.90
15328;DHT22;7764;51.430;6.840;2022-12-07T11:55:00;7.60;99.90
15328;DHT22;7764;51.430;6.840;2022-12-07T11:57:35;7.60;99.90
15328;DHT22;7764;51.430;6.840;2022-12-07T12:00:09;7.60;99.90
15328;DHT22;7764;51.430;6.840;2022-12-07T12:02:44;7.60;99.90
15328;DHT22;7764;51.430;6.840;2022-12-07T12:05:17;7.60;99.90
15328;DHT22;7764;51.430;6.840;2022-12-07T12:07:52;7.60;99.90
15328;DHT22;7764;51.430;6.840;2022-12-07T12:10:26;7.60;99.90
15328;DHT22;7764;51.430;6.840;2022-12-07T12:13:11;7.70;99.90
15328;DHT22;7764;51.430;6.840;2022-12-07T12:15:51;7.50;99.90
15328;DHT22;7764;51.430;6.840;2022-12-07T12:18:50;7.50;99.90
15328;DHT22;7764;51.430;6.840;2022-12-07T12:21:20;7.60;99.90
15328;DHT22;7764;51.430;6.840;2022-12-07T12:23:56;7.60;99.90
15328;DHT22;7764;51.430;6.840;2022-12-07T12:26:25;7.50;99.90
15328;DHT22;7764;51.430;6.840;2022-12-07T12:28:56;7.60;99.90
15328;DHT22;7764;51.430;6.840;2022-12-07T12:31:36;7.60;99.90
15328;DHT22;7764;51.430;6.840;2022-12-07T12:34:33;7.60;99.90
15328;DHT22;7764;51.430;6.840;2022-12-07T12:42:58;7.60;99.90
15328;DHT22;7764;51.430;6.840;2022-12-07T12:45:26;7.60;99.90
15328;DHT22;7764;51.430;6.840;2022-12-07T12:47:58;7.50;99.90
15328;DHT22;7764;51.430;6.840;2022-12-07T12:50:30;7.50;99.90
15328;DHT22;7764;51.430;6.840;2022-12-07T12:53:04;7.50;99.90
15328;DHT22;7764;51.430;6.840;2022-12-07T12:59:21;7.60;99.90
15328;DHT22;7764;51.430;6.840;2022-12-07T13:01:49;7.60;99.90
15328;DHT22;7764;51.430;6.840;2022-12-07T13:07:51;7.60;99.90
15328;DHT22;7764;51.430;6.840;2022-12-07T13:10:24;7.50;99.90
15328;DHT22;7764;51.430;6.840;2022-12-07T13:12:57;7.40;99.90
15328;DHT22;7764;51.430;6.840;2022-12-07T13:15:44;7.50;99.90
15328;DHT22;7764;51.430;6.840;2022-12-07T13:18:24;7.40;99.90
15328;DHT22;7764;51.430;6.840;2022-12-07T13:20:54;7.50;99.90
15328;DHT22;7764;51.430;6.840;2022-12-07T13:23:25;7.50;99.90
15328;DHT22;7764;51.430;6.840;2022-12-07T13:25:58;7.50;99.90
15328;DHT22;7764;51.430;6.840;2022-12-07T13:28:33;7.40;99.90
15328;DHT22;7764;51.430;6.840;2022-12-07T13:31:18;7.30;99.90
15328;DHT22;7764;51.430;6.840;2022-12-07T13:33:46;7.30;99.90
15328;DHT22;7764;51.430;6.840;2022-12-07T13:36:19;7.30;99.90
15328;DHT22;7764;51.430;6.840;2022-12-07T13:38:53;7.30;99.90
15328;DHT22;7764;51.430;6.840;2022-12-07T13:41:21;7.30;99.90
15328;DHT22;7764;51.430;6.840;2022-12-07T13:43:52;7.30;99.90
15328;DHT22;7764;51.430;6.840;2022-12-07T13:46:26;7.30;99.90
15328;DHT22;7764;51.430;6.840;2022-12-07T13:48:56;7.30;99.90
15328;DHT22;7764;51.430;6.840;2022-12-07T13:51:24;7.30;99.90
15328;DHT22;7764;51.430;6.840;2022-12-07T13:53:53;7.20;99.90
15328;DHT22;7764;51.430;6.840;2022-12-07T13:56:24;7.20;99.90
15328;DHT22;7764;51.430;6.840;2022-12-07T13:58:53;7.20;99.90
15328;DHT22;7764;51.430;6.840;2022-12-07T14:01:22;7.20;99.90
15328;DHT22;7764;51.430;6.840;2022-12-07T14:03:50;7.20;99.90
15328;DHT22;7764;51.430;6.840;2022-12-07T14:06:23;7.20;99.90
15328;DHT22;7764;51.430;6.840;2022-12-07T14:09:08;7.20;99.90
15328;DHT22;7764;51.430;6.840;2022-12-07T14:11:35;7.10;99.90
15328;DHT22;7764;51.430;6.840;2022-12-07T14:14:03;7.20;99.90
15328;DHT22;7764;51.430;6.840;2022-12-07T14:16:33;7.10;99.90
15328;DHT22;7764;51.430;6.840;2022-12-07T14:19:02;7.10;99.90
15328;DHT22;7764;51.430;6.840;2022-12-07T14:21:30;7.10;99.90
15328;DHT22;7764;51.430;6.840;2022-12-07T14:24:11;7.10;99.90
15328;DHT22;7764;51.430;6.840;2022-12-07T14:26:38;7.00;99.90
15328;DHT22;7764;51.430;6.840;2022-12-07T14:29:31;7.00;99.90
15328;DHT22;7764;51.430;6.840;2022-12-07T14:32:19;7.00;99.90
15328;DHT22;7764;51.430;6.840;2022-12-07T14:35:00;6.90;99.90
15328;DHT22;7764;51.430;6.840;2022-12-07T14:37:29;6.90;99.90
15328;DHT22;7764;51.430;6.840;2022-12-07T14:39:57;6.80;99.90
15328;DHT22;7764;51.430;6.840;2022-12-07T14:42:27;6.90;99.90
15328;DHT22;7764;51.430;6.840;2022-12-07T14:44:55;6.80;99.90
15328;DHT22;7764;51.430;6.840;2022-12-07T14:47:24;6.80;99.90
15328;DHT22;7764;51.430;6.840;2022-12-07T14:49:52;6.70;99.90
15328;DHT22;7764;51.430;6.840;2022-12-07T14:52:21;6.70;99.90
15328;DHT22;7764;51.430;6.840;2022-12-07T14:54:49;6.70;99.90
15328;DHT22;7764;51.430;6.840;2022-12-07T14:57:16;6.70;99.90
15328;DHT22;7764;51.430;6.840;2022-12-07T14:59:43;6.60;99.90
15328;DHT22;7764;51.430;6.840;2022-12-07T15:02:14;6.60;99.90
15328;DHT22;7764;51.430;6.840;2022-12-07T15:04:42;6.60;99.90
15328;DHT22;7764;51.430;6.840;2022-12-07T15:07:15;6.60;99.90
15328;DHT22;7764;51.430;6.840;2022-12-07T15:09:43;6.60;99.90
15328;DHT22;7764;51.430;6.840;2022-12-07T15:12:10;6.50;99.90
15328;DHT22;7764;51.430;6.840;2022-12-07T15:14:36;6.50;99.90
15328;DHT22;7764;51.430;6.840;2022-12-07T15:17:03;6.50;99.90
15328;DHT22;7764;51.430;6.840;2022-12-07T15:19:30;6.40;99.90
15328;DHT22;7764;51.430;6.840;2022-12-07T15:21:58;6.40;99.90
15328;DHT22;7764;51.430;6.840;2022-12-07T15:24:26;6.30;99.90
15328;DHT22;7764;51.430;6.840;2022-12-07T15:26:53;6.30;99.90
15328;DHT22;7764;51.430;6.840;2022-12-07T15:29:20;6.30;99.90
15328;DHT22;7764;51.430;6.840;2022-12-07T15:31:48;6.20;99.90
15328;DHT22;7764;51.430;6.840;2022-12-07T15:34:16;6.20;99.90
15328;DHT22;7764;51.430;6.840;2022-12-07T15:36:43;6.10;99.90
15328;DHT22;7764;51.430;6.840;2022-12-07T15:39:11;6.10;99.90
15328;DHT22;7764;51.430;6.840;2022-12-07T15:41:38;6.10;99.90
15328;DHT22;7764;51.430;6.840;2022-12-07T15:44:05;6.10;99.90
15328;DHT22;7764;51.430;6.840;2022-12-07T15:46:49;6.00;99.90
15328;DHT22;7764;51.430;6.840;2022-12-07T15:49:18;6.00;99.90
15328;DHT22;7764;51.430;6.840;2022-12-07T15:51:45;6.00;99.90
15328;DHT22;7764;51.430;6.840;2022-12-07T15:54:17;6.00;99.90
15328;DHT22;7764;51.430;6.840;2022-12-07T15:56:45;6.00;99.90
15328;DHT22;7764;51.430;6.840;2022-12-07T15:59:11;6.00;99.90
15328;DHT22;7764;51.430;6.840;2022-12-07T16:01:38;6.00;99.90
15328;DHT22;7764;51.430;6.840;2022-12-07T16:04:05;6.00;99.90
15328;DHT22;7764;51.430;6.840;2022-12-07T16:06:32;5.90;99.90
15328;DHT22;7764;51.430;6.840;2022-12-07T16:08:59;6.00;99.90
15328;DHT22;7764;51.430;6.840;2022-12-07T16:11:27;6.00;99.90
15328;DHT22;7764;51.430;6.840;2022-12-07T16:13:54;5.90;99.90
15328;DHT22;7764;51.430;6.840;2022-12-07T16:16:21;6.00;99.90
15328;DHT22;7764;51.430;6.840;2022-12-07T16:18:49;6.00;99.90
15328;DHT22;7764;51.430;6.840;2022-12-07T16:21:16;6.10;99.90
15328;DHT22;7764;51.430;6.840;2022-12-07T16:23:44;6.10;99.90
15328;DHT22;7764;51.430;6.840;2022-12-07T16:26:12;6.20;99.90
15328;DHT22;7764;51.430;6.840;2022-12-07T16:28:41;6.20;99.90
15328;DHT22;7764;51.430;6.840;2022-12-07T16:31:10;6.30;99.90
15328;DHT22;7764;51.430;6.840;2022-12-07T16:33:39;6.30;99.90
15328;DHT22;7764;51.430;6.840;2022-12-07T16:36:08;6.30;99.90